Accueil
METAR-TAF:

METAR-TAF

Aéroports :

Powell River, Colombie-Britannique, Canada

latitude: 49-50N, longitude: 124-30W, altitude: 130 m

Observation

Le bulletin a été fait il y a 54 minutes, à 15:00 UTC
Vent 3 kt de est/nord-est, variant entre nord/nord-est et est/sud-est
Température -2°C
Humidité 74%
Pression 1022 hPa
Visibilité: 24.1 km
Quelques nuages à une hauteur de 3000 ft
Nuages fragmentés à une hauteur de 4000 ft
Nuages fragmentés à une hauteur de 5000 ft

METAR: CYPW 201500Z 07003KT 030V110 15SM FEW030 BKN040 BKN050 M02/M06 A3018 RMK SC2SC3SC2 SLP228

Heure: 07:54 (15:54 UTC)


TAF: absent

Observations et prévisions météorologiques de plus de 4000 aéroports (messages METAR et TAF).

Les stations disponibles sont représentées par des disques jaunes et rouges sur la carte.

Passer la souris dessus pour voir le nom de la station.

Cliquer dessus pour voir les observations et prévisions météorologiques.

Pour changer de carte: cliquez sur les boutons verts avec une croix noire pour zoomer, sur le bouton vert avec un tiret pour effectuer un zoom arrière, ou sur les flèches vertes pour les cartes adjacentes.


METAR-TAF: